sensor_id;sensor_type;location;lat;lon;timestamp;pressure;altitude;pressure_sealevel;temperature;humidity
60307;BME280;46155;52.364;6.580;2023-05-29T03:02:18;102202.78;;;8.92;100.00
60307;BME280;46155;52.364;6.580;2023-05-29T03:04:44;102202.78;;;8.92;100.00
60307;BME280;46155;52.364;6.580;2023-05-29T03:07:10;102207.50;;;8.86;100.00
60307;BME280;46155;52.364;6.580;2023-05-29T03:09:35;102211.88;;;8.77;100.00
60307;BME280;46155;52.364;6.580;2023-05-29T03:12:01;102208.50;;;8.78;100.00
60307;BME280;46155;52.364;6.580;2023-05-29T03:14:26;102202.72;;;8.72;100.00
60307;BME280;46155;52.364;6.580;2023-05-29T03:16:52;102200.88;;;8.71;100.00
60307;BME280;46155;52.364;6.580;2023-05-29T03:19:18;102200.88;;;8.71;100.00
60307;BME280;46155;52.364;6.580;2023-05-29T03:21:43;102200.38;;;8.75;100.00
60307;BME280;46155;52.364;6.580;2023-05-29T03:24:08;102203.13;;;8.76;100.00
60307;BME280;46155;52.364;6.580;2023-05-29T03:26:34;102202.88;;;8.84;100.00
60307;BME280;46155;52.364;6.580;2023-05-29T03:29:01;102199.53;;;8.95;100.00
60307;BME280;46155;52.364;6.580;2023-05-29T03:31:26;102200.19;;;9.03;100.00
60307;BME280;46155;52.364;6.580;2023-05-29T03:33:52;102192.03;;;8.89;100.00
60307;BME280;46155;52.364;6.580;2023-05-29T03:36:17;102198.78;;;8.77;100.00
60307;BME280;46155;52.364;6.580;2023-05-29T03:38:43;102201.69;;;8.80;100.00
60307;BME280;46155;52.364;6.580;2023-05-29T03:41:08;102197.31;;;8.70;100.00
60307;BME280;46155;52.364;6.580;2023-05-29T03:43:34;102200.88;;;8.71;100.00
60307;BME280;46155;52.364;6.580;2023-05-29T03:45:59;102202.78;;;8.63;100.00
60307;BME280;46155;52.364;6.580;2023-05-29T03:48:25;102201.88;;;8.63;100.00
60307;BME280;46155;52.364;6.580;2023-05-29T03:50:50;102202.28;;;8.67;100.00
60307;BME280;46155;52.364;6.580;2023-05-29T03:53:15;102202.41;;;8.69;100.00
60307;BME280;46155;52.364;6.580;2023-05-29T03:55:41;102198.59;;;8.65;100.00
60307;BME280;46155;52.364;6.580;2023-05-29T03:58:06;102205.75;;;8.57;100.00
60307;BME280;46155;52.364;6.580;2023-05-29T04:00:32;102212.34;;;8.63;100.00
60307;BME280;46155;52.364;6.580;2023-05-29T04:02:57;102210.34;;;8.60;100.00
60307;BME280;46155;52.364;6.580;2023-05-29T04:05:22;102214.03;;;8.62;100.00
60307;BME280;46155;52.364;6.580;2023-05-29T04:07:48;102201.53;;;8.49;100.00
60307;BME280;46155;52.364;6.580;2023-05-29T04:10:13;102215.16;;;8.55;100.00
60307;BME280;46155;52.364;6.580;2023-05-29T04:12:38;102214.69;;;8.59;100.00
60307;BME280;46155;52.364;6.580;2023-05-29T04:15:05;102212.16;;;8.42;100.00
60307;BME280;46155;52.364;6.580;2023-05-29T04:17:30;102230.00;;;8.46;100.00
60307;BME280;46155;52.364;6.580;2023-05-29T04:19:55;102221.09;;;8.44;100.00
60307;BME280;46155;52.364;6.580;2023-05-29T04:22:21;102236.47;;;8.50;100.00
60307;BME280;46155;52.364;6.580;2023-05-29T04:24:46;102247.13;;;8.61;100.00
60307;BME280;46155;52.364;6.580;2023-05-29T04:27:12;102242.25;;;8.56;100.00
60307;BME280;46155;52.364;6.580;2023-05-29T04:29:41;102250.03;;;8.46;100.00
60307;BME280;46155;52.364;6.580;2023-05-29T04:32:10;102255.78;;;8.60;100.00
60307;BME280;46155;52.364;6.580;2023-05-29T04:34:37;102253.59;;;8.65;100.00
60307;BME280;46155;52.364;6.580;2023-05-29T04:37:04;102248.84;;;8.61;100.00
60307;BME280;46155;52.364;6.580;2023-05-29T04:39:29;102256.63;;;8.70;100.00
60307;BME280;46155;52.364;6.580;2023-05-29T04:41:55;102253.28;;;8.81;100.00
60307;BME280;46155;52.364;6.580;2023-05-29T04:44:24;102247.09;;;9.29;100.00
60307;BME280;46155;52.364;6.580;2023-05-29T04:46:51;102252.22;;;9.38;100.00
60307;BME280;46155;52.364;6.580;2023-05-29T04:49:18;102256.72;;;9.20;100.00
60307;BME280;46155;52.364;6.580;2023-05-29T04:51:43;102259.31;;;9.09;100.00
60307;BME280;46155;52.364;6.580;2023-05-29T04:54:10;102257.28;;;8.96;100.00
60307;BME280;46155;52.364;6.580;2023-05-29T04:56:36;102259.41;;;9.01;100.00
60307;BME280;46155;52.364;6.580;2023-05-29T04:59:02;102257.06;;;9.04;100.00
60307;BME280;46155;52.364;6.580;2023-05-29T05:01:27;102261.16;;;9.10;100.00
60307;BME280;46155;52.364;6.580;2023-05-29T05:03:54;102253.41;;;9.02;100.00
60307;BME280;46155;52.364;6.580;2023-05-29T05:06:21;102257.03;;;8.93;100.00
60307;BME280;46155;52.364;6.580;2023-05-29T05:08:47;102256.75;;;8.90;100.00
60307;BME280;46155;52.364;6.580;2023-05-29T05:11:12;102257.28;;;8.96;100.00
60307;BME280;46155;52.364;6.580;2023-05-29T05:13:38;102262.34;;;9.14;100.00
60307;BME280;46155;52.364;6.580;2023-05-29T05:16:04;102266.69;;;9.13;100.00
60307;BME280;46155;52.364;6.580;2023-05-29T05:18:29;102266.81;;;9.15;100.00
60307;BME280;46155;52.364;6.580;2023-05-29T05:20:55;102272.16;;;9.36;100.00
60307;BME280;46155;52.364;6.580;2023-05-29T05:23:20;102268.41;;;9.23;100.00
60307;BME280;46155;52.364;6.580;2023-05-29T05:25:45;102279.03;;;9.25;100.00
60307;BME280;46155;52.364;6.580;2023-05-29T05:28:11;102284.94;;;9.33;100.00
60307;BME280;46155;52.364;6.580;2023-05-29T05:30:36;102278.16;;;9.35;100.00
60307;BME280;46155;52.364;6.580;2023-05-29T05:33:02;102283.69;;;9.48;100.00
60307;BME280;46155;52.364;6.580;2023-05-29T05:35:27;102277.19;;;9.63;100.00
60307;BME280;46155;52.364;6.580;2023-05-29T05:37:53;102280.09;;;9.67;100.00
60307;BME280;46155;52.364;6.580;2023-05-29T05:40:18;102282.41;;;9.53;100.00
60307;BME280;46155;52.364;6.580;2023-05-29T05:42:43;102277.75;;;9.70;100.00
60307;BME280;46155;52.364;6.580;2023-05-29T05:45:09;102280.91;;;9.76;99.85
60307;BME280;46155;52.364;6.580;2023-05-29T05:47:35;102283.78;;;9.79;99.10
60307;BME280;46155;52.364;6.580;2023-05-29T05:50:00;102277.13;;;9.93;98.82
60307;BME280;46155;52.364;6.580;2023-05-29T05:52:26;102288.31;;;10.11;97.97
60307;BME280;46155;52.364;6.580;2023-05-29T05:54:55;102277.81;;;10.11;96.00
60307;BME280;46155;52.364;6.580;2023-05-29T05:57:20;102275.97;;;10.10;95.17
60307;BME280;46155;52.364;6.580;2023-05-29T05:59:46;102276.09;;;10.22;95.95
60307;BME280;46155;52.364;6.580;2023-05-29T06:02:11;102272.56;;;10.21;95.19
60307;BME280;46155;52.364;6.580;2023-05-29T06:04:36;102271.50;;;10.19;93.66
60307;BME280;46155;52.364;6.580;2023-05-29T06:07:02;102271.50;;;10.29;94.13
60307;BME280;46155;52.364;6.580;2023-05-29T06:09:27;102279.66;;;10.22;92.64
60307;BME280;46155;52.364;6.580;2023-05-29T06:11:53;102279.66;;;10.22;92.90
60307;BME280;46155;52.364;6.580;2023-05-29T06:14:18;102282.28;;;10.22;92.72
60307;BME280;46155;52.364;6.580;2023-05-29T06:16:43;102277.53;;;10.28;92.51
60307;BME280;46155;52.364;6.580;2023-05-29T06:19:09;102272.56;;;10.42;91.99
60307;BME280;46155;52.364;6.580;2023-05-29T06:21:35;102297.22;;;10.64;90.81
60307;BME280;46155;52.364;6.580;2023-05-29T06:24:00;102285.97;;;10.55;89.53
60307;BME280;46155;52.364;6.580;2023-05-29T06:26:25;102288.09;;;10.49;90.78
60307;BME280;46155;52.364;6.580;2023-05-29T06:28:52;102285.19;;;10.56;89.16
60307;BME280;46155;52.364;6.580;2023-05-29T06:31:17;102285.41;;;10.70;89.30
60307;BME280;46155;52.364;6.580;2023-05-29T06:33:43;102288.69;;;10.88;87.77
60307;BME280;46155;52.364;6.580;2023-05-29T06:36:09;102294.84;;;10.88;86.62
60307;BME280;46155;52.364;6.580;2023-05-29T06:38:34;102298.94;;;10.84;87.04
60307;BME280;46155;52.364;6.580;2023-05-29T06:40:59;102299.00;;;11.07;87.39
60307;BME280;46155;52.364;6.580;2023-05-29T06:43:27;102290.06;;;11.05;85.86
60307;BME280;46155;52.364;6.580;2023-05-29T06:45:52;102298.13;;;11.28;86.37
60307;BME280;46155;52.364;6.580;2023-05-29T06:48:17;102303.25;;;11.27;84.67
60307;BME280;46155;52.364;6.580;2023-05-29T06:50:43;102297.56;;;11.43;84.10
60307;BME280;46155;52.364;6.580;2023-05-29T06:53:08;102300.00;;;11.51;83.00
60307;BME280;46155;52.364;6.580;2023-05-29T06:55:33;102296.09;;;11.68;83.25
60307;BME280;46155;52.364;6.580;2023-05-29T06:57:58;102300.16;;;11.97;83.18
60307;BME280;46155;52.364;6.580;2023-05-29T07:00:24;102302.19;;;11.79;81.39
60307;BME280;46155;52.364;6.580;2023-05-29T07:02:49;102302.00;;;11.98;81.62
60307;BME280;46155;52.364;6.580;2023-05-29T07:05:16;102301.38;;;12.13;81.48
60307;BME280;46155;52.364;6.580;2023-05-29T07:07:41;102310.00;;;12.00;80.63
60307;BME280;46155;52.364;6.580;2023-05-29T07:10:06;102313.00;;;12.04;81.03
60307;BME280;46155;52.364;6.580;2023-05-29T07:12:32;102322.88;;;12.07;78.80
60307;BME280;46155;52.364;6.580;2023-05-29T07:14:57;102314.09;;;11.96;79.09
60307;BME280;46155;52.364;6.580;2023-05-29T07:17:22;102311.63;;;11.87;79.22
60307;BME280;46155;52.364;6.580;2023-05-29T07:19:48;102314.44;;;12.23;82.22
60307;BME280;46155;52.364;6.580;2023-05-29T07:22:15;102321.31;;;12.21;77.65
60307;BME280;46155;52.364;6.580;2023-05-29T07:24:40;102326.03;;;12.25;78.58
60307;BME280;46155;52.364;6.580;2023-05-29T07:27:06;102332.31;;;12.27;77.96
60307;BME280;46155;52.364;6.580;2023-05-29T07:29:31;102318.50;;;12.42;77.73
60307;BME280;46155;52.364;6.580;2023-05-29T07:31:56;102328.38;;;12.44;76.60
60307;BME280;46155;52.364;6.580;2023-05-29T07:34:22;102331.00;;;12.44;77.25
60307;BME280;46155;52.364;6.580;2023-05-29T07:39:22;102325.53;;;12.53;76.65
60307;BME280;46155;52.364;6.580;2023-05-29T07:41:47;102321.69;;;12.37;75.99
60307;BME280;46155;52.364;6.580;2023-05-29T07:44:13;102323.78;;;12.42;75.79
60307;BME280;46155;52.364;6.580;2023-05-29T07:46:38;102328.97;;;12.52;75.69
60307;BME280;46155;52.364;6.580;2023-05-29T07:49:03;102321.13;;;12.42;76.49
60307;BME280;46155;52.364;6.580;2023-05-29T07:51:28;102317.78;;;12.66;77.21
60307;BME280;46155;52.364;6.580;2023-05-29T07:53:54;102313.00;;;12.96;76.12
60307;BME280;46155;52.364;6.580;2023-05-29T07:56:19;102326.84;;;13.29;74.95
60307;BME280;46155;52.364;6.580;2023-05-29T07:58:44;102320.09;;;13.21;73.28
60307;BME280;46155;52.364;6.580;2023-05-29T08:01:09;102316.22;;;13.39;75.40
60307;BME280;46155;52.364;6.580;2023-05-29T08:03:35;102323.31;;;13.40;74.76
60307;BME280;46155;52.364;6.580;2023-05-29T08:06:00;102326.28;;;13.45;72.84
60307;BME280;46155;52.364;6.580;2023-05-29T08:08:26;102321.22;;;13.60;73.97
60307;BME280;46155;52.364;6.580;2023-05-29T08:10:51;102324.31;;;13.66;71.61
60307;BME280;46155;52.364;6.580;2023-05-29T08:13:17;102327.88;;;13.67;72.35
60307;BME280;46155;52.364;6.580;2023-05-29T08:15:42;102323.97;;;13.62;71.56
60307;BME280;46155;52.364;6.580;2023-05-29T08:18:07;102323.19;;;13.51;70.45
60307;BME280;46155;52.364;6.580;2023-05-29T08:20:33;102325.06;;;13.40;71.12
60307;BME280;46155;52.364;6.580;2023-05-29T08:22:59;102315.97;;;13.60;71.83
60307;BME280;46155;52.364;6.580;2023-05-29T08:25:24;102316.44;;;13.54;69.30
60307;BME280;46155;52.364;6.580;2023-05-29T08:27:50;102324.88;;;13.62;70.10
60307;BME280;46155;52.364;6.580;2023-05-29T08:30:15;102316.91;;;13.49;70.58
60307;BME280;46155;52.364;6.580;2023-05-29T08:32:41;102337.72;;;13.81;71.43
60307;BME280;46155;52.364;6.580;2023-05-29T08:35:06;102335.22;;;13.96;71.02
60307;BME280;46155;52.364;6.580;2023-05-29T08:37:32;102339.03;;;14.00;68.65
60307;BME280;46155;52.364;6.580;2023-05-29T08:39:57;102334.84;;;13.66;68.55
60307;BME280;46155;52.364;6.580;2023-05-29T08:42:29;102337.09;;;13.48;69.09
60307;BME280;46155;52.364;6.580;2023-05-29T08:45:02;102340.28;;;13.56;70.41
60307;BME280;46155;52.364;6.580;2023-05-29T08:47:32;102342.88;;;13.80;71.01
60307;BME280;46155;52.364;6.580;2023-05-29T08:50:00;102333.84;;;14.01;69.79
60307;BME280;46155;52.364;6.580;2023-05-29T08:52:26;102345.22;;;14.00;68.19
60307;BME280;46155;52.364;6.580;2023-05-29T08:54:55;102337.50;;;14.03;70.67
60307;BME280;46155;52.364;6.580;2023-05-29T08:57:21;102346.09;;;14.12;67.68
60307;BME280;46155;52.364;6.580;2023-05-29T08:59:51;102335.75;;;14.16;68.04
60307;BME280;46155;52.364;6.580;2023-05-29T09:02:17;102339.28;;;13.91;67.51
60307;BME280;46155;52.364;6.580;2023-05-29T09:04:43;102340.91;;;14.14;67.01
60307;BME280;46155;52.364;6.580;2023-05-29T09:07:17;102342.78;;;14.03;66.83
60307;BME280;46155;52.364;6.580;2023-05-29T09:09:47;102354.22;;;14.16;66.63
60307;BME280;46155;52.364;6.580;2023-05-29T09:12:13;102346.69;;;14.34;69.15
60307;BME280;46155;52.364;6.580;2023-05-29T09:14:41;102342.88;;;14.17;65.15
60307;BME280;46155;52.364;6.580;2023-05-29T09:17:08;102344.41;;;14.01;65.80
60307;BME280;46155;52.364;6.580;2023-05-29T09:19:34;102338.16;;;14.12;68.12
60307;BME280;46155;52.364;6.580;2023-05-29T09:22:05;102344.81;;;14.44;69.06
60307;BME280;46155;52.364;6.580;2023-05-29T09:24:35;102342.44;;;14.10;64.88
60307;BME280;46155;52.364;6.580;2023-05-29T09:27:04;102345.22;;;14.25;66.10
60307;BME280;46155;52.364;6.580;2023-05-29T09:29:31;102344.16;;;14.35;65.76
60307;BME280;46155;52.364;6.580;2023-05-29T09:31:57;102342.91;;;14.30;65.64
60307;BME280;46155;52.364;6.580;2023-05-29T09:34:24;102346.63;;;14.45;66.69
60307;BME280;46155;52.364;6.580;2023-05-29T09:36:52;102339.41;;;14.43;66.52
60307;BME280;46155;52.364;6.580;2023-05-29T09:39:17;102348.50;;;14.60;66.12
60307;BME280;46155;52.364;6.580;2023-05-29T09:41:44;102355.84;;;14.64;64.47
60307;BME280;46155;52.364;6.580;2023-05-29T09:44:13;102361.41;;;14.55;63.95
60307;BME280;46155;52.364;6.580;2023-05-29T09:46:40;102352.47;;;14.53;64.17
60307;BME280;46155;52.364;6.580;2023-05-29T09:49:13;102355.13;;;14.92;65.04
60307;BME280;46155;52.364;6.580;2023-05-29T09:51:39;102350.63;;;14.91;63.07
60307;BME280;46155;52.364;6.580;2023-05-29T09:54:16;102348.19;;;14.94;60.51
60307;BME280;46155;52.364;6.580;2023-05-29T09:56:43;102335.38;;;15.13;62.50
60307;BME280;46155;52.364;6.580;2023-05-29T09:59:13;102334.69;;;15.16;61.54
60307;BME280;46155;52.364;6.580;2023-05-29T10:01:43;102336.44;;;15.42;62.53
60307;BME280;46155;52.364;6.580;2023-05-29T10:04:11;102326.75;;;15.43;59.70
60307;BME280;46155;52.364;6.580;2023-05-29T10:06:38;102331.41;;;15.47;60.86
60307;BME280;46155;52.364;6.580;2023-05-29T10:09:08;102341.72;;;15.15;58.17
60307;BME280;46155;52.364;6.580;2023-05-29T10:11:37;102334.38;;;15.25;57.57
60307;BME280;46155;52.364;6.580;2023-05-29T10:14:03;102321.13;;;14.98;58.85
60307;BME280;46155;52.364;6.580;2023-05-29T10:16:31;102314.84;;;15.23;58.90
60307;BME280;46155;52.364;6.580;2023-05-29T10:19:01;102312.38;;;15.12;58.50
60307;BME280;46155;52.364;6.580;2023-05-29T10:21:35;102313.22;;;15.25;60.26
60307;BME280;46155;52.364;6.580;2023-05-29T10:24:05;102309.56;;;15.23;57.94
60307;BME280;46155;52.364;6.580;2023-05-29T10:26:34;102318.53;;;15.11;57.10
60307;BME280;46155;52.364;6.580;2023-05-29T10:31:46;102320.66;;;15.44;57.31
60307;BME280;46155;52.364;6.580;2023-05-29T10:34:29;102318.69;;;15.28;57.07
60307;BME280;46155;52.364;6.580;2023-05-29T10:37:06;102312.38;;;15.39;57.61
60307;BME280;46155;52.364;6.580;2023-05-29T10:39:34;102313.19;;;15.52;56.75
60307;BME280;46155;52.364;6.580;2023-05-29T10:42:00;102315.50;;;15.60;55.33
60307;BME280;46155;52.364;6.580;2023-05-29T10:49:25;102313.69;;;15.46;57.97
60307;BME280;46155;52.364;6.580;2023-05-29T10:51:51;102314.78;;;15.63;58.31
60307;BME280;46155;52.364;6.580;2023-05-29T10:54:22;102309.59;;;15.64;57.09
60307;BME280;46155;52.364;6.580;2023-05-29T10:57:00;102300.31;;;15.71;56.74
60307;BME280;46155;52.364;6.580;2023-05-29T10:59:26;102303.22;;;15.61;56.72
60307;BME280;46155;52.364;6.580;2023-05-29T11:01:54;102308.06;;;15.68;57.58
60307;BME280;46155;52.364;6.580;2023-05-29T11:06:45;102320.13;;;15.49;57.09
60307;BME280;46155;52.364;6.580;2023-05-29T11:15:09;102318.09;;;15.45;59.23
60307;BME280;46155;52.364;6.580;2023-05-29T11:20:06;102312.53;;;15.69;60.59
60307;BME280;46155;52.364;6.580;2023-05-29T11:25:26;102318.34;;;15.63;58.55
60307;BME280;46155;52.364;6.580;2023-05-29T11:27:52;102329.44;;;15.84;55.31
60307;BME280;46155;52.364;6.580;2023-05-29T11:30:21;102313.94;;;15.91;55.57
60307;BME280;46155;52.364;6.580;2023-05-29T11:32:47;102319.88;;;16.15;57.93
60307;BME280;46155;52.364;6.580;2023-05-29T11:35:13;102322.63;;;16.16;55.66
60307;BME280;46155;52.364;6.580;2023-05-29T11:37:40;102318.56;;;16.08;55.93
60307;BME280;46155;52.364;6.580;2023-05-29T11:40:09;102307.44;;;16.14;53.39
60307;BME280;46155;52.364;6.580;2023-05-29T11:42:35;102311.88;;;16.43;54.41
60307;BME280;46155;52.364;6.580;2023-05-29T11:45:20;102321.59;;;16.58;54.44
60307;BME280;46155;52.364;6.580;2023-05-29T11:47:53;102311.84;;;16.28;50.49
60307;BME280;46155;52.364;6.580;2023-05-29T11:50:24;102318.50;;;16.22;51.09
60307;BME280;46155;52.364;6.580;2023-05-29T11:52:49;102297.88;;;16.31;53.06
60307;BME280;46155;52.364;6.580;2023-05-29T11:55:17;102314.25;;;16.53;54.67
60307;BME280;46155;52.364;6.580;2023-05-29T11:57:43;102317.94;;;16.70;52.57
60307;BME280;46155;52.364;6.580;2023-05-29T12:00:13;102313.34;;;16.68;53.92
60307;BME280;46155;52.364;6.580;2023-05-29T12:02:39;102301.03;;;16.68;55.21
60307;BME280;46155;52.364;6.580;2023-05-29T12:05:05;102315.16;;;16.84;54.78
60307;BME280;46155;52.364;6.580;2023-05-29T12:07:32;102304.22;;;16.78;54.32
60307;BME280;46155;52.364;6.580;2023-05-29T12:10:08;102307.72;;;16.92;52.92
60307;BME280;46155;52.364;6.580;2023-05-29T12:12:34;102312.44;;;16.67;53.51
60307;BME280;46155;52.364;6.580;2023-05-29T12:15:00;102306.59;;;16.73;53.40
60307;BME280;46155;52.364;6.580;2023-05-29T12:17:30;102299.25;;;16.84;54.15
60307;BME280;46155;52.364;6.580;2023-05-29T12:19:55;102303.03;;;16.87;55.30
60307;BME280;46155;52.364;6.580;2023-05-29T12:22:38;102303.84;;;16.86;55.60
60307;BME280;46155;52.364;6.580;2023-05-29T12:25:10;102308.97;;;16.83;54.58
60307;BME280;46155;52.364;6.580;2023-05-29T12:27:38;102294.88;;;16.84;54.70
60307;BME280;46155;52.364;6.580;2023-05-29T12:30:12;102294.00;;;16.99;54.65
60307;BME280;46155;52.364;6.580;2023-05-29T12:32:41;102291.06;;;16.94;54.76
60307;BME280;46155;52.364;6.580;2023-05-29T12:35:27;102299.63;;;16.75;53.78
60307;BME280;46155;52.364;6.580;2023-05-29T12:38:01;102302.75;;;16.68;55.96
60307;BME280;46155;52.364;6.580;2023-05-29T12:40:28;102310.97;;;16.73;55.41
60307;BME280;46155;52.364;6.580;2023-05-29T12:43:01;102306.22;;;16.67;54.48
60307;BME280;46155;52.364;6.580;2023-05-29T12:45:29;102298.53;;;16.42;54.22
60307;BME280;46155;52.364;6.580;2023-05-29T12:47:57;102300.34;;;16.43;55.33
60307;BME280;46155;52.364;6.580;2023-05-29T12:53:01;102305.03;;;16.62;55.47
60307;BME280;46155;52.364;6.580;2023-05-29T12:55:29;102299.09;;;16.81;56.39
60307;BME280;46155;52.364;6.580;2023-05-29T12:57:55;102300.75;;;16.94;53.31
60307;BME280;46155;52.364;6.580;2023-05-29T13:00:22;102301.47;;;17.06;52.41
60307;BME280;46155;52.364;6.580;2023-05-29T13:02:48;102287.41;;;17.07;52.24
60307;BME280;46155;52.364;6.580;2023-05-29T13:05:14;102291.03;;;17.09;52.79
60307;BME280;46155;52.364;6.580;2023-05-29T13:07:41;102290.38;;;17.13;53.17
60307;BME280;46155;52.364;6.580;2023-05-29T13:10:06;102296.97;;;16.75;51.75
60307;BME280;46155;52.364;6.580;2023-05-29T13:12:32;102310.97;;;16.58;52.59
60307;BME280;46155;52.364;6.580;2023-05-29T13:14:57;102302.56;;;16.65;52.50
60307;BME280;46155;52.364;6.580;2023-05-29T13:17:23;102303.31;;;16.77;52.91
60307;BME280;46155;52.364;6.580;2023-05-29T13:19:48;102294.72;;;16.81;52.24
60307;BME280;46155;52.364;6.580;2023-05-29T13:22:14;102291.22;;;16.82;52.48
60307;BME280;46155;52.364;6.580;2023-05-29T13:24:39;102284.28;;;17.14;53.43
60307;BME280;46155;52.364;6.580;2023-05-29T13:27:04;102294.16;;;17.48;52.24
60307;BME280;46155;52.364;6.580;2023-05-29T13:29:31;102307.28;;;17.30;52.17
60307;BME280;46155;52.364;6.580;2023-05-29T13:31:56;102291.69;;;17.36;52.77
60307;BME280;46155;52.364;6.580;2023-05-29T13:34:21;102306.31;;;17.45;51.69
60307;BME280;46155;52.364;6.580;2023-05-29T13:36:50;102308.38;;;17.34;51.38
60307;BME280;46155;52.364;6.580;2023-05-29T13:39:15;102306.25;;;16.97;52.18
60307;BME280;46155;52.364;6.580;2023-05-29T13:41:41;102295.19;;;17.04;52.29
60307;BME280;46155;52.364;6.580;2023-05-29T13:44:06;102303.31;;;17.07;52.63
60307;BME280;46155;52.364;6.580;2023-05-29T13:46:31;102297.47;;;16.98;52.12
60307;BME280;46155;52.364;6.580;2023-05-29T13:48:56;102288.50;;;16.96;51.19
60307;BME280;46155;52.364;6.580;2023-05-29T13:51:22;102292.69;;;17.07;52.05
60307;BME280;46155;52.364;6.580;2023-05-29T13:53:47;102298.91;;;17.23;51.95
60307;BME280;46155;52.364;6.580;2023-05-29T13:56:12;102300.78;;;17.25;50.18
60307;BME280;46155;52.364;6.580;2023-05-29T13:58:38;102298.41;;;17.30;50.80
60307;BME280;46155;52.364;6.580;2023-05-29T14:01:03;102288.28;;;17.23;48.91
60307;BME280;46155;52.364;6.580;2023-05-29T14:03:28;102304.19;;;17.23;48.00
60307;BME280;46155;52.364;6.580;2023-05-29T14:05:54;102284.78;;;17.24;49.76
60307;BME280;46155;52.364;6.580;2023-05-29T14:08:20;102285.47;;;17.36;49.56
60307;BME280;46155;52.364;6.580;2023-05-29T14:10:45;102294.88;;;17.14;46.98
60307;BME280;46155;52.364;6.580;2023-05-29T14:13:12;102295.59;;;17.27;47.39
60307;BME280;46155;52.364;6.580;2023-05-29T14:15:37;102312.03;;;17.36;45.81
60307;BME280;46155;52.364;6.580;2023-05-29T14:18:02;102293.84;;;17.12;47.09
60307;BME280;46155;52.364;6.580;2023-05-29T14:20:28;102297.56;;;17.31;47.25
60307;BME280;46155;52.364;6.580;2023-05-29T14:22:54;102288.28;;;17.23;44.85
60307;BME280;46155;52.364;6.580;2023-05-29T14:25:19;102297.56;;;17.31;46.56
60307;BME280;46155;52.364;6.580;2023-05-29T14:27:45;102285.31;;;17.33;47.35
60307;BME280;46155;52.364;6.580;2023-05-29T14:30:10;102281.66;;;17.31;46.70
60307;BME280;46155;52.364;6.580;2023-05-29T14:32:36;102303.34;;;17.38;47.70
60307;BME280;46155;52.364;6.580;2023-05-29T14:35:01;102286.56;;;17.08;47.32
60307;BME280;46155;52.364;6.580;2023-05-29T14:37:26;102283.63;;;17.03;48.13
60307;BME280;46155;52.364;6.580;2023-05-29T14:39:52;102288.06;;;17.19;48.07
60307;BME280;46155;52.364;6.580;2023-05-29T14:42:17;102284.00;;;17.10;47.74
60307;BME280;46155;52.364;6.580;2023-05-29T14:44:43;102276.69;;;17.06;48.04
60307;BME280;46155;52.364;6.580;2023-05-29T14:47:08;102291.59;;;17.03;49.15
60307;BME280;46155;52.364;6.580;2023-05-29T14:49:33;102297.53;;;16.84;49.18
60307;BME280;46155;52.364;6.580;2023-05-29T14:51:59;102289.06;;;16.90;51.08
60307;BME280;46155;52.364;6.580;2023-05-29T14:54:25;102283.47;;;17.00;48.99
60307;BME280;46155;52.364;6.580;2023-05-29T14:56:50;102269.47;;;17.03;50.12
60307;BME280;46155;52.364;6.580;2023-05-29T14:59:15;102276.38;;;17.16;51.20
60307;BME280;46155;52.364;6.580;2023-05-29T15:01:41;102283.66;;;17.35;51.20
60307;BME280;46155;52.364;6.580;2023-05-29T15:04:06;102282.91;;;17.37;49.96
60307;BME280;46155;52.364;6.580;2023-05-29T15:06:31;102289.56;;;17.46;48.60
60307;BME280;46155;52.364;6.580;2023-05-29T15:08:58;102297.53;;;17.14;49.08
60307;BME280;46155;52.364;6.580;2023-05-29T15:11:25;102299.09;;;17.11;49.38
60307;BME280;46155;52.364;6.580;2023-05-29T15:13:51;102291.81;;;16.92;48.38
60307;BME280;46155;52.364;6.580;2023-05-29T15:16:16;102293.81;;;16.96;50.16
60307;BME280;46155;52.364;6.580;2023-05-29T15:18:41;102291.72;;;16.90;49.81
60307;BME280;46155;52.364;6.580;2023-05-29T15:21:07;102285.56;;;16.76;49.75
60307;BME280;46155;52.364;6.580;2023-05-29T15:23:32;102295.44;;;16.94;50.24
60307;BME280;46155;52.364;6.580;2023-05-29T15:25:59;102293.63;;;16.93;48.02
60307;BME280;46155;52.364;6.580;2023-05-29T15:28:25;102282.38;;;16.97;49.21
60307;BME280;46155;52.364;6.580;2023-05-29T15:30:50;102290.34;;;16.97;49.23
60307;BME280;46155;52.364;6.580;2023-05-29T15:33:16;102287.31;;;16.91;48.82
60307;BME280;46155;52.364;6.580;2023-05-29T15:35:41;102285.72;;;16.79;48.32
60307;BME280;46155;52.364;6.580;2023-05-29T15:38:08;102280.59;;;16.82;49.79
60307;BME280;46155;52.364;6.580;2023-05-29T15:40:33;102279.34;;;16.91;48.99
60307;BME280;46155;52.364;6.580;2023-05-29T15:42:59;102293.06;;;16.83;47.55
60307;BME280;46155;52.364;6.580;2023-05-29T15:45:25;102274.22;;;16.79;48.73
60307;BME280;46155;52.364;6.580;2023-05-29T15:47:52;102278.72;;;16.80;48.15
60307;BME280;46155;52.364;6.580;2023-05-29T15:50:17;102281.25;;;16.78;47.55
60307;BME280;46155;52.364;6.580;2023-05-29T15:52:42;102280.72;;;16.69;48.28
60307;BME280;46155;52.364;6.580;2023-05-29T15:55:08;102280.59;;;16.82;49.31
60307;BME280;46155;52.364;6.580;2023-05-29T15:57:33;102288.34;;;16.93;48.21
60307;BME280;46155;52.364;6.580;2023-05-29T15:59:59;102290.13;;;16.94;47.67
60307;BME280;46155;52.364;6.580;2023-05-29T16:02:25;102291.81;;;16.92;47.26
60307;BME280;46155;52.364;6.580;2023-05-29T16:04:50;102283.47;;;16.85;47.13
60307;BME280;46155;52.364;6.580;2023-05-29T16:07:15;102282.19;;;16.79;47.80
60307;BME280;46155;52.364;6.580;2023-05-29T16:09:40;102288.97;;;16.89;48.11
60307;BME280;46155;52.364;6.580;2023-05-29T16:12:07;102292.31;;;16.86;48.66
60307;BME280;46155;52.364;6.580;2023-05-29T16:14:34;102284.09;;;16.96;47.72